• Join FlightAware (Why Join?)
  • Login
  • US Flag 
11:50PM EDT


 

Airport Tracker/Info


-or-


 

Live Flight TrackerFlight Track Log ✈ FLG4262 ✈ 23-Nov-2013 ✈ KDTW - KBGM

Flight Track Log - Related Links

Times and Time Zones

All times are in EST time to prevent confusion due to time zone crossing. See the FLG4262 flight status page for this flight to view local times or setup timezone preferences in your user account.

Time Position Orientation Groundspeed Altitude Reporting Facility
EST Latitude Longitude Course Direction KTS MPH feet Rate Location/Type
03:55PM 42.2297 -83.3339 52° Northeast 151 174 1,600  Level Cleveland Center
03:55PM 42.2417 -83.3131 52° Northeast 177 204 2,600 2,280 Climbing Cleveland Center
03:56PM 42.2578 -83.2833 54° Northeast 186 214 4,100 2,880 Climbing Cleveland Center
03:56PM 42.2633 -83.2511 77° East 235 270 5,200 2,400 Climbing Cleveland Center
03:57PM 42.2508 -83.1928 106° East 256 295 6,600 2,340 Climbing Cleveland Center
03:58PM 42.2536 -83.0872 88° East 287 330 9,500 2,400 Climbing Cleveland Center
03:59PM 42.2792 -82.9483 76° East 327 376 11,600 1,860 Climbing Cleveland Center
04:00PM 42.3019 -82.8181 77° East 354 407 13,400 1,680 Climbing Cleveland Center
04:01PM 42.3267 -82.6825 76° East 367 422 15,100 1,560 Climbing Cleveland Center
04:02PM 42.3339 -82.5325 86° East 404 465 16,700 1,320 Climbing Cleveland Center
04:03PM 42.3350 -82.3764 89° East 413 475 17,900 960 Climbing Cleveland Center
04:04PM 42.3358 -82.2133 90° East 431 496 18,700 960 Climbing Cleveland Center
04:05PM 42.3381 -82.0178 89° East 447 514 19,900 960 Climbing Cleveland Center
04:06PM 42.3378 -81.8417 90° East 460 529 20,800 900 Climbing Cleveland Center
04:07PM 42.3392 -81.6592 89° East 474 545 21,800 720 Climbing Cleveland Center
04:08PM 42.3389 -81.4717 90° East 489 563 22,300 780 Climbing Cleveland Center
04:09PM 42.3383 -81.2794 90° East 502 578 23,400 900 Climbing Cleveland Center
04:11PM 42.3383 -81.0850 90° East 510 587 24,200 660 Climbing Cleveland Center
04:12PM 42.3375 -80.8869 90° East 520 598 24,800 540 Climbing Cleveland Center
04:13PM 42.3361 -80.6856 90° East 529 609 25,400 600 Climbing Cleveland Center
04:14PM 42.3347 -80.4453 90° East 540 621 26,100 660 Climbing Cleveland Center
04:15PM 42.3342 -80.2356 90° East 550 633 26,800 420 Climbing Cleveland Center
04:16PM 42.3308 -80.0231 91° East 559 643 27,000 60 Climbing Cleveland Center
04:17PM 42.3283 -79.8078 91° East 571 657 27,000  Level Cleveland Center
04:18PM 42.3239 -79.5892 92° East 581 669 27,000  Level Cleveland Center
04:19PM 42.3200 -79.3683 91° East 590 679 27,000  Level Cleveland Center
04:20PM 42.3156 -79.1450 91° East 597 687 27,000  Level Cleveland Center
04:21PM 42.3103 -78.9206 92° East 599 689 27,000  Level Cleveland Center
04:22PM 42.3056 -78.6886 91° East 600 690 27,000  Level Cleveland Center
04:23PM 42.2997 -78.4192 92° East 602 693 27,000  Level Cleveland Center
04:24PM 42.2933 -78.1942 92° East 605 696 27,000 -900 Level Cleveland Center
04:25PM 42.2867 -77.9739 92° East 598 688 25,200 -1,980 Descending Cleveland Center
04:26PM 42.2800 -77.7653 92° East 576 663 23,000 -2,160 Descending Cleveland Center
04:27PM 42.2739 -77.5725 92° East 533 613 20,800 -2,160 Descending Cleveland Center
04:28PM 42.2675 -77.3906 93° East 499 574 18,600 -1,860 Descending Cleveland Center
04:29PM 42.2578 -77.1881 94° East 460 529 17,100 -960 Descending Cleveland Center
04:30PM 42.2519 -77.0294 93° East 454 522 16,800 -1,320 Descending New York Center
04:31PM 42.2472 -76.8803 92° East 421 484 14,600 -2,100 Descending New York Center
04:32PM 42.2392 -76.7536 95° East 378 435 12,600 -1,920 Descending New York Center
04:33PM 42.2369 -76.6300 91° East 350 403 10,800 -1,740 Descending New York Center
04:34PM 42.2322 -76.5150 93° East 323 372 9,200 -1,680 Descending New York Center
04:35PM 42.2247 -76.4050 95° East 310 357 7,500 -1,800 Descending New York Center
04:36PM 42.2217 -76.2956 92° East 297 342 5,700 -1,740 Descending New York Center
04:37PM 42.1969 -76.1983 109° East 286 329 4,100 -900 Descending New York Center
04:38PM 42.1369 -76.1431 146° Southeast 254 292 4,000 -60 Descending New York Center
04:39PM 42.0811 -76.0883 144° Southeast 248 285 4,000  Level New York Center
04:40PM 42.0275 -76.0336 143° Southeast 248 285 4,000  Level New York Center
04:41PM 41.9736 -75.9819 145° Southeast 243 280 4,000  Level New York Center
04:42PM 41.9686 -75.9033 95° East 213 245 4,000  Level New York Center
04:43PM 41.9839 -75.8350 73° East 201 231 4,000  Level New York Center
04:44PM 42.0297 -75.8383 357° North 133 153 4,000  Level New York Center
04:45PM 42.0681 -75.8636 334° Northwest 127 146 4,000  Level New York Center
04:46PM 42.1003 -75.8914 327° Northwest 133 153 4,000 -300 Level New York Center
04:47PM 42.1264 -75.9158 325° Northwest 128 147 3,500 -540 Descending New York Center